Artern, Germany

6:02 PM CEST on September 20, 2014 (GMT +0200)
ISACHSEN47 | Change Station
CLOSE
Current Station
Personal Weather Station
Location: Sangerhausen, SACHSEN-ANHALT
Elevation: 758 ft
Nearby Weather Stations

Elev 758 ft 51.49 °N, 11.29 °E | Updated 2 minutes ago

Overcast
Overcast
68.2 °F
Feels Like 68.2 °F
N
0.0
Wind Variable Wind from SW
Gusts 0.0 mph

Today
High -- | Low -- °F
--% Chance of Precip.
Yesterday
High -- | Low -- °F
Precip. -- in
6:57 AM 7:18 PM
Waning Crescent, 11% visible
Pressure 29.95 in
Visibility 6.2 miles
Clouds Few 1000 ft
Mostly Cloudy 10000 ft
Dew Point 63 °F
Humidity 83%
Rainfall 0.01 in
Snow Depth Not available.
UV 0.0 out of 12
Pollen Not available.
Air Quality Not available.
Flu Activity Not available.
METAR EDDE 201550Z 24008KT 9999 -RA FEW010 BKN100 16/15 Q1014 RETS NOSIG

More Conditions Fewer Conditions

Pressure 29.95 in
Visibility 6.2 miles
Clouds Few 1000 ft
Mostly Cloudy 10000 ft
Dew Point 63 °F
Humidity 83%
Rainfall 0.01 in
Snow Depth Not available.
UV 0.0 out of 12
Pollen Not available.
Air Quality Not available.
Flu Activity Not available.
METAR EDDE 201550Z 24008KT 9999 -RA FEW010 BKN100 16/15 Q1014 RETS NOSIG

More Conditions Fewer Conditions

10-Day Weather Forecast

Almanac

Astronomy

Sep. 20, 2014 Rise Set
Actual Time 6:57 AM CEST 7:18 PM CEST
Civil Twilight 6:24 AM CEST 7:51 PM CEST
Nautical Twilight 5:44 AM CEST 8:30 PM CEST
Astronomical Twilight 5:02 AM CEST 9:12 PM CEST
Moon 3:01 AM CEST 5:28 PM CEST
Length of Visible Light 13h 27m
Length of Day
12h 20m
Tomorrow will be 3m 54s shorter.
Waning Crescent, 11% of the Moon is Illuminated
Today
Waning Crescent
Sep 24
New
Oct 1
First Quarter
Oct 8
Full
Oct 15
Last Quarter

Today's Extremes

Country Highs Country Lows

Community

WunderPhotos

Upload Photos

1,754,888 photos uploaded!

Nearby

Snow Depth

Not available.

Earthquake Activity

City Distance Mag. Time & Date
No recent earthquake activity has been reported nearby.
Minimum magnitude displayed is 2.5.

Coastal Water Temperatures

Place Temperature
No Stations Reporting

Nearby Weather Stations